Time;durP1;ratioP1;P1;durP2;ratioP2;P2;SDS_P1;SDS_P2;PMS_P1;PMS_P2;Temp;Humidity;BMP_temperature;BMP_pressure;BME280_temperature;BME280_humidity;BME280_pressure;Samples;Min_cycle;Max_cycle;Signal;HPM_P1;HPM_P2
2023/06/05 00:01:37;;;;;;;7.03;2.90;;;;;;;18.34;nan;102065.50;5034363;28;20128;-38
2023/06/05 00:04:03;;;;;;;3.53;1.42;;;;;;;18.36;nan;102060.91;5051041;28;20447;-39
2023/06/05 00:06:29;;;;;;;4.95;1.30;;;;;;;18.37;nan;102066.13;5053244;28;20119;-39
2023/06/05 00:08:54;;;;;;;5.28;1.58;;;;;;;18.31;nan;102068.38;5047405;28;20537;-39
2023/06/05 00:11:20;;;;;;;4.55;1.65;;;;;;;18.14;nan;102054.41;5053465;28;20033;-39
2023/06/05 00:13:45;;;;;;;4.22;1.45;;;;;;;18.11;nan;102059.94;5033819;28;20040;-39
2023/06/05 00:16:11;;;;;;;2.88;1.58;;;;;;;18.00;nan;102055.34;5029498;28;20036;-39
2023/06/05 00:18:37;;;;;;;4.43;1.63;;;;;;;17.94;nan;102055.75;5046874;28;20032;-38
2023/06/05 00:21:03;;;;;;;4.18;1.40;;;;;;;17.93;nan;102052.22;5039351;28;20032;-39
2023/06/05 00:23:29;;;;;;;4.70;1.38;;;;;;;17.92;nan;102057.66;5049476;28;20032;-38
2023/06/05 00:25:55;;;;;;;6.50;1.45;;;;;;;17.85;nan;102067.03;4995354;28;20029;-39
2023/06/05 00:28:20;;;;;;;3.83;1.50;;;;;;;17.81;nan;102053.06;5018888;28;20373;-39
2023/06/05 00:30:46;;;;;;;2.63;1.52;;;;;;;17.76;nan;102057.84;5032552;28;20525;-39
2023/06/05 00:33:11;;;;;;;3.55;1.98;;;;;;;17.68;nan;102059.22;5067919;28;20029;-38
2023/06/05 00:35:37;;;;;;;3.80;1.55;;;;;;;17.66;nan;102055.81;5032412;28;20033;-39
2023/06/05 00:38:02;;;;;;;2.47;1.33;;;;;;;17.68;nan;102053.91;5035902;28;20021;-38
2023/06/05 00:40:27;;;;;;;5.40;1.73;;;;;;;17.67;nan;102057.50;5033897;28;20033;-38
2023/06/05 00:42:53;;;;;;;3.75;1.60;;;;;;;17.71;nan;102057.31;5038743;28;20040;-39
2023/06/05 00:45:18;;;;;;;3.97;1.50;;;;;;;17.67;nan;102054.84;4995868;28;20532;-39
2023/06/05 00:47:44;;;;;;;3.47;1.33;;;;;;;17.66;nan;102055.81;5065831;28;20575;-38
2023/06/05 00:50:12;;;;;;;1.90;0.82;;;;;;;17.70;nan;102055.59;5033704;28;20029;-39
2023/06/05 00:52:38;;;;;;;6.40;1.73;;;;;;;17.67;nan;102059.34;5017155;28;20490;-37
2023/06/05 00:55:04;;;;;;;2.90;1.48;;;;;;;17.64;nan;102057.72;5047123;28;20033;-39
2023/06/05 00:57:29;;;;;;;3.88;2.05;;;;;;;17.66;nan;102060.28;5025313;28;20021;-38
2023/06/05 00:59:55;;;;;;;2.33;1.25;;;;;;;17.58;nan;102057.25;5051350;28;20048;-39
2023/06/05 01:02:21;;;;;;;5.25;1.50;;;;;;;17.58;nan;102058.13;5015034;28;20043;-39
2023/06/05 01:04:46;;;;;;;3.60;1.23;;;;;;;17.60;nan;102058.91;5032125;28;20045;-40
2023/06/05 01:07:16;;;;;;;1.17;0.65;;;;;;;17.61;nan;102052.63;5014312;28;20495;-41
2023/06/05 01:09:41;;;;;;;5.03;1.58;;;;;;;17.54;nan;102055.78;5035870;28;20070;-40
2023/06/05 01:12:26;;;;;;;2.50;1.40;;;;;;;17.48;nan;102057.88;5025970;28;20041;-38
2023/06/05 01:14:58;;;;;;;2.97;1.35;;;;;;;17.43;nan;102053.84;5051677;28;20044;-38
2023/06/05 01:17:28;;;;;;;2.75;1.27;;;;;;;17.34;nan;102056.13;5028372;28;20402;-38
2023/06/05 01:19:54;;;;;;;3.53;1.38;;;;;;;17.26;nan;102053.13;5031028;28;20474;-38
2023/06/05 01:22:25;;;;;;;6.45;1.42;;;;;;;17.25;nan;102054.09;5030749;28;20165;-38
2023/06/05 01:24:50;;;;;;;4.38;1.67;;;;;;;17.11;nan;102051.47;5042086;28;20021;-37
2023/06/05 01:27:30;;;;;;;3.90;1.60;;;;;;;17.05;nan;102056.22;5016226;28;20056;-38
2023/06/05 01:30:14;;;;;;;2.88;1.52;;;;;;;17.12;nan;102061.16;5044522;28;20033;-38
2023/06/05 01:32:54;;;;;;;4.35;1.63;;;;;;;17.17;nan;102053.72;5033050;28;20025;-39
2023/06/05 01:35:27;;;;;;;3.58;1.25;;;;;;;17.20;nan;102045.53;5042580;28;21555;-38
2023/06/05 01:37:54;;;;;;;8.60;1.80;;;;;;;17.22;nan;102046.28;5031361;28;20025;-39
2023/06/05 01:40:23;;;;;;;2.65;1.58;;;;;;;17.27;nan;102046.84;5034068;28;20047;-39
2023/06/05 01:42:50;;;;;;;2.10;0.98;;;;;;;17.22;nan;102048.97;5049818;28;20036;-39
2023/06/05 01:45:17;;;;;;;3.58;1.38;;;;;;;17.16;nan;102047.56;4995371;28;20115;-39
2023/06/05 01:47:42;;;;;;;2.33;0.95;;;;;;;17.06;nan;102052.63;5048290;28;20054;-38
2023/06/05 01:50:12;;;;;;;5.75;1.42;;;;;;;16.94;nan;102048.06;5042134;28;20057;-38
2023/06/05 01:52:44;;;;;;;5.35;1.30;;;;;;;16.96;nan;102055.94;5032820;28;20044;-38
2023/06/05 01:55:14;;;;;;;;;;;;;;;16.89;nan;102050.16;5025608;28;20119;-39
2023/06/05 01:57:41;;;;;;;4.10;1.27;;;;;;;16.86;nan;102050.38;5057169;28;19948;-39
2023/06/05 02:00:12;;;;;;;2.95;1.13;;;;;;;16.82;nan;102048.84;5025046;28;20108;-38
2023/06/05 02:02:40;;;;;;;3.15;1.40;;;;;;;16.81;nan;102047.13;5033043;28;20120;-38
2023/06/05 02:05:07;;;;;;;4.35;1.45;;;;;;;16.71;nan;102049.53;5028209;28;20039;-37
2023/06/05 02:07:33;;;;;;;3.22;1.50;;;;;;;16.69;nan;102043.44;5039279;28;20124;-38
2023/06/05 02:10:02;;;;;;;9.50;1.83;;;;;;;16.72;nan;102044.09;5009231;28;20029;-39
2023/06/05 02:12:32;;;;;;;2.80;1.48;;;;;;;16.68;nan;102042.59;5031106;28;20510;-39
2023/06/05 02:14:59;;;;;;;2.83;1.50;;;;;;;16.57;nan;102045.94;5015396;28;20050;-38
2023/06/05 02:17:24;;;;;;;5.18;1.70;;;;;;;16.52;nan;102041.84;4998342;28;20072;-39
2023/06/05 02:19:50;;;;;;;2.95;1.42;;;;;;;16.44;nan;102034.38;5032389;28;20497;-38
2023/06/05 02:22:16;;;;;;;2.97;1.63;;;;;;;16.37;nan;102033.03;5028833;28;20052;-38
2023/06/05 02:24:42;;;;;;;4.18;1.48;;;;;;;16.27;nan;102038.91;5027568;28;20411;-38
2023/06/05 02:27:10;;;;;;;3.25;1.45;;;;;;;16.20;nan;102039.38;5044017;28;20180;-38
2023/06/05 02:29:36;;;;;;;5.38;2.00;;;;;;;16.16;nan;102033.41;5032375;28;20025;-40
2023/06/05 02:32:06;;;;;;;3.75;1.90;;;;;;;15.99;nan;102034.41;5029399;28;20083;-37
2023/06/05 02:34:32;;;;;;;3.30;1.70;;;;;;;16.00;nan;102028.16;5020967;28;20029;-39
2023/06/05 02:37:01;;;;;;;2.58;1.48;;;;;;;15.94;nan;102028.56;5047088;28;20119;-38
2023/06/05 02:39:26;;;;;;;5.45;1.80;;;;;;;15.94;nan;102026.72;5034169;28;20029;-38
2023/06/05 02:41:55;;;;;;;3.67;1.38;;;;;;;15.90;nan;102027.00;5045544;28;20035;-39
2023/06/05 02:44:21;;;;;;;5.35;2.00;;;;;;;15.79;nan;102027.63;5027330;28;20029;-38
2023/06/05 02:46:46;;;;;;;22.88;12.52;;;;;;;15.80;nan;102030.19;5009092;28;20063;-39
2023/06/05 02:49:12;;;;;;;5.15;2.83;;;;;;;15.88;nan;102026.25;5013625;28;20033;-38
2023/06/05 02:51:37;;;;;;;6.15;1.73;;;;;;;15.87;nan;102029.84;5018590;28;20450;-39
2023/06/05 02:54:03;;;;;;;2.83;1.30;;;;;;;15.71;nan;102025.41;5028800;28;20555;-38
2023/06/05 02:56:29;;;;;;;4.57;1.60;;;;;;;15.77;nan;102027.72;5030533;28;20056;-38
2023/06/05 02:58:57;;;;;;;2.80;1.30;;;;;;;15.74;nan;102025.25;5029679;28;20051;-38
2023/06/05 03:01:25;;;;;;;4.10;1.83;;;;;;;15.63;nan;102027.69;5028092;28;20426;-38
2023/06/05 03:03:52;;;;;;;6.07;2.22;;;;;;;15.61;nan;102021.59;5028219;28;20028;-39
2023/06/05 03:06:18;;;;;;;3.30;1.42;;;;;;;15.60;nan;102014.59;5024941;28;20063;-38
2023/06/05 03:08:46;;;;;;;4.05;1.52;;;;;;;15.60;nan;102015.44;5020578;28;20025;-39
2023/06/05 03:11:11;;;;;;;2.85;1.35;;;;;;;15.53;nan;102020.25;5027256;28;20128;-38
2023/06/05 03:13:37;;;;;;;3.55;1.20;;;;;;;15.49;nan;102015.22;5017454;28;20028;-38
2023/06/05 03:16:03;;;;;;;5.43;2.05;;;;;;;15.49;nan;102021.38;4987774;28;20064;-37
2023/06/05 03:18:29;;;;;;;5.70;1.83;;;;;;;15.50;nan;102022.22;5054121;28;20037;-38
2023/06/05 03:20:55;;;;;;;8.02;1.98;;;;;;;15.52;nan;102015.88;5028218;28;20036;-38
2023/06/05 03:23:27;;;;;;;6.68;2.47;;;;;;;15.57;nan;102020.06;5009094;28;20032;-40
2023/06/05 03:25:53;;;;;;;6.22;1.90;;;;;;;15.58;nan;102019.13;5039661;28;20029;-38
2023/06/05 03:28:20;;;;;;;3.80;1.50;;;;;;;15.53;nan;102025.56;5033280;28;20034;-38
2023/06/05 03:30:46;;;;;;;5.68;1.50;;;;;;;15.59;nan;102010.22;5039075;28;21360;-38
2023/06/05 03:33:13;;;;;;;3.35;1.50;;;;;;;15.67;nan;102018.56;5012385;28;20619;-38
2023/06/05 03:35:40;;;;;;;3.80;1.90;;;;;;;15.63;nan;102023.22;5044671;28;20391;-38
2023/06/05 03:38:05;;;;;;;7.28;2.10;;;;;;;15.62;nan;102018.00;5028961;28;20029;-40
2023/06/05 03:40:31;;;;;;;3.63;1.55;;;;;;;15.65;nan;102018.69;5041620;28;20709;-38
2023/06/05 03:42:57;;;;;;;5.05;1.80;;;;;;;15.70;nan;102016.63;5026056;28;20029;-38
2023/06/05 03:45:26;;;;;;;5.88;2.22;;;;;;;15.83;nan;102019.38;5028016;28;21473;-38
2023/06/05 03:47:52;;;;;;;8.00;2.08;;;;;;;15.90;nan;102013.75;5033797;28;20021;-38
2023/06/05 03:50:18;;;;;;;5.32;1.83;;;;;;;15.98;nan;102012.34;5048143;28;20048;-38
2023/06/05 03:52:44;;;;;;;6.60;1.88;;;;;;;15.98;nan;102016.78;5032390;28;20122;-38
2023/06/05 03:55:09;;;;;;;6.32;2.33;;;;;;;15.91;nan;102018.09;5027521;28;20032;-38
2023/06/05 03:57:38;;;;;;;5.07;2.08;;;;;;;15.90;nan;102017.25;5031194;28;20033;-39
2023/06/05 04:00:10;;;;;;;5.28;1.80;;;;;;;15.96;nan;102026.63;5015375;28;20633;-38
2023/06/05 04:02:37;;;;;;;7.43;2.53;;;;;;;16.02;nan;102022.78;5025569;28;20036;-38
2023/06/05 04:05:04;;;;;;;9.25;2.80;;;;;;;16.10;nan;102024.03;5053880;28;20061;-38
2023/06/05 04:07:30;;;;;;;4.15;2.50;;;;;;;16.14;nan;102028.19;5048084;28;20037;-37
2023/06/05 04:09:55;;;;;;;4.40;1.83;;;;;;;16.17;nan;102031.59;5012229;28;20033;-40
2023/06/05 04:12:21;;;;;;;5.68;1.95;;;;;;;16.14;nan;102025.53;5033452;28;20120;-39
2023/06/05 04:14:47;;;;;;;7.75;1.90;;;;;;;16.19;nan;102027.06;5032261;28;20035;-39
2023/06/05 04:17:13;;;;;;;3.92;1.80;;;;;;;16.23;nan;102025.91;5033789;28;20059;-38
2023/06/05 04:19:40;;;;;;;5.75;2.60;;;;;;;16.25;nan;102024.88;5061812;28;20098;-38
2023/06/05 04:22:06;;;;;;;3.17;1.27;;;;;;;16.29;nan;102036.16;5020830;28;20041;-38
2023/06/05 04:24:31;;;;;;;3.85;2.15;;;;;;;16.28;nan;102026.47;5030109;28;20066;-38
2023/06/05 04:27:00;;;;;;;3.83;1.77;;;;;;;16.25;nan;102029.34;5032012;28;20032;-39
2023/06/05 04:29:26;;;;;;;6.65;2.22;;;;;;;16.30;nan;102036.06;5033040;28;20061;-38
2023/06/05 04:31:52;;;;;;;6.05;1.67;;;;;;;16.35;nan;102030.47;5025813;28;20120;-40
2023/06/05 04:34:20;;;;;;;5.05;1.77;;;;;;;16.40;nan;102031.06;5032880;28;20029;-38
2023/06/05 04:36:49;;;;;;;6.30;2.00;;;;;;;16.41;nan;102029.22;5018189;28;20047;-38
2023/06/05 04:39:15;;;;;;;4.45;1.98;;;;;;;16.43;nan;102022.88;5046443;28;20120;-37
2023/06/05 04:41:46;;;;;;;5.85;2.00;;;;;;;16.45;nan;102025.44;5032053;28;20517;-39
2023/06/05 04:44:16;;;;;;;6.78;2.00;;;;;;;16.48;nan;102033.22;5029684;28;20035;-39
2023/06/05 04:46:45;;;;;;;13.80;5.68;;;;;;;16.54;nan;102037.31;5044135;28;20024;-37
2023/06/05 04:49:12;;;;;;;9.00;3.95;;;;;;;16.58;nan;102041.44;5009888;28;20033;-39
2023/06/05 04:51:37;;;;;;;5.05;2.10;;;;;;;16.61;nan;102030.63;5050519;28;20544;-39
2023/06/05 04:54:03;;;;;;;3.38;1.85;;;;;;;16.67;nan;102030.25;5010415;28;20060;-39
2023/06/05 04:56:29;;;;;;;6.80;1.70;;;;;;;16.71;nan;102033.56;5032605;28;20036;-38
2023/06/05 04:58:55;;;;;;;20.98;3.88;;;;;;;16.75;nan;102032.44;5044418;28;20930;-39
2023/06/05 05:01:21;;;;;;;7.38;1.85;;;;;;;16.80;nan;102029.47;5039661;28;20784;-39
2023/06/05 05:03:46;;;;;;;8.60;2.25;;;;;;;16.83;nan;102026.63;5051191;28;20037;-38
2023/06/05 05:06:16;;;;;;;8.48;1.77;;;;;;;16.86;nan;102023.78;5035720;28;20038;-37
2023/06/05 05:08:43;;;;;;;15.10;2.28;;;;;;;16.85;nan;102027.41;5066302;28;20060;-37
2023/06/05 05:11:08;;;;;;;6.82;1.98;;;;;;;16.89;nan;102023.56;5049431;28;20074;-38
2023/06/05 05:13:36;;;;;;;4.00;2.17;;;;;;;16.94;nan;102026.78;5008925;28;20033;-38
2023/06/05 05:16:02;;;;;;;11.18;2.33;;;;;;;16.98;nan;102033.66;5029318;28;20458;-38
2023/06/05 05:18:28;;;;;;;8.77;2.30;;;;;;;17.03;nan;102026.22;5046888;28;20494;-39
2023/06/05 05:20:53;;;;;;;14.85;2.83;;;;;;;17.05;nan;102029.63;5052612;28;20037;-39
2023/06/05 05:23:20;;;;;;;7.68;2.72;;;;;;;17.11;nan;102028.38;5011858;28;20025;-38
2023/06/05 05:25:46;;;;;;;3.42;1.45;;;;;;;17.16;nan;102031.59;5015215;28;20111;-39
2023/06/05 05:28:12;;;;;;;4.85;1.33;;;;;;;17.20;nan;102024.25;5013114;28;20190;-38
2023/06/05 05:30:41;;;;;;;5.10;2.00;;;;;;;17.25;nan;102023.97;5046889;28;20048;-37
2023/06/05 05:33:07;;;;;;;5.95;1.70;;;;;;;17.28;nan;102029.94;5027748;28;20488;-38
2023/06/05 05:35:32;;;;;;;4.75;1.90;;;;;;;17.33;nan;102029.63;5058019;28;20067;-38
2023/06/05 05:37:58;;;;;;;8.93;3.67;;;;;;;17.38;nan;102030.19;5036321;28;20025;-39
2023/06/05 05:40:23;;;;;;;12.73;3.38;;;;;;;17.41;nan;102035.28;5026178;28;20072;-37
2023/06/05 05:42:49;;;;;;;4.65;2.20;;;;;;;17.43;nan;102033.38;5027824;28;20041;-38
2023/06/05 05:45:15;;;;;;;9.05;2.53;;;;;;;17.48;nan;102038.41;5040841;28;20032;-38
2023/06/05 05:47:40;;;;;;;4.05;2.00;;;;;;;17.55;nan;102036.19;5035469;28;20040;-38
2023/06/05 05:50:06;;;;;;;13.20;2.63;;;;;;;17.60;nan;102039.38;5030056;28;20033;-39
2023/06/05 05:52:32;;;;;;;5.35;2.47;;;;;;;17.64;nan;102044.41;5031910;28;20108;-39
2023/06/05 05:54:59;;;;;;;9.95;2.13;;;;;;;17.70;nan;102045.78;5027538;28;20222;-39
2023/06/05 05:57:25;;;;;;;5.55;1.92;;;;;;;17.74;nan;102039.31;5041849;28;21293;-39
2023/06/05 05:59:50;;;;;;;17.58;9.70;;;;;;;17.76;nan;102034.75;5049593;28;20070;-39
2023/06/05 06:02:16;;;;;;;6.07;3.35;;;;;;;17.81;nan;102037.94;5046590;28;20542;-38
2023/06/05 06:04:43;;;;;;;7.45;3.30;;;;;;;17.88;nan;102035.72;5048557;28;20475;-38
2023/06/05 06:07:09;;;;;;;9.10;3.40;;;;;;;17.96;nan;102040.53;5049138;28;20700;-38
2023/06/05 06:09:35;;;;;;;9.40;4.47;;;;;;;18.00;nan;102044.69;5020162;28;20409;-38
2023/06/05 06:12:05;;;;;;;8.48;4.18;;;;;;;18.04;nan;102040.03;5028556;28;20033;-40
2023/06/05 06:14:34;;;;;;;7.25;2.65;;;;;;;18.10;nan;102044.91;5037372;28;20036;-39
2023/06/05 06:17:01;;;;;;;10.82;3.28;;;;;;;18.11;nan;102046.63;5023184;28;20087;-39
2023/06/05 06:19:27;;;;;;;36.20;10.77;;;;;;;18.12;nan;102037.69;5024861;28;20086;-38
2023/06/05 06:21:54;;;;;;;3.67;1.90;;;;;;;18.13;nan;102053.56;5029981;28;20044;-39
2023/06/05 06:24:22;;;;;;;8.13;3.08;;;;;;;18.19;nan;102046.97;5038367;28;20060;-39
2023/06/05 06:26:48;;;;;;;4.97;2.15;;;;;;;18.24;nan;102044.81;5009529;28;20457;-38
2023/06/05 06:29:18;;;;;;;6.57;1.88;;;;;;;18.33;nan;102053.13;5031200;28;20036;-39
2023/06/05 06:31:43;;;;;;;5.18;2.00;;;;;;;18.37;nan;102054.63;5025931;28;20016;-39
2023/06/05 06:34:10;;;;;;;5.70;1.70;;;;;;;18.39;nan;102058.88;5038906;28;20050;-39
2023/06/05 06:36:40;;;;;;;2.55;1.35;;;;;;;18.43;nan;102054.19;5010084;28;20021;-39
2023/06/05 06:39:07;;;;;;;7.05;1.95;;;;;;;18.46;nan;102053.09;5020528;28;20091;-40
2023/06/05 06:41:34;;;;;;;11.88;4.47;;;;;;;18.50;nan;102060.78;5013568;28;20050;-40
2023/06/05 06:44:00;;;;;;;7.90;3.75;;;;;;;18.51;nan;102059.84;5018104;28;20036;-38
2023/06/05 06:46:25;;;;;;;4.43;1.88;;;;;;;18.55;nan;102066.63;5013410;28;20037;-38
2023/06/05 06:48:51;;;;;;;3.42;1.58;;;;;;;18.62;nan;102058.22;5008877;28;20033;-37
2023/06/05 06:51:17;;;;;;;6.22;2.03;;;;;;;18.66;nan;102065.88;5026544;28;20032;-38
2023/06/05 06:53:43;;;;;;;4.43;1.38;;;;;;;18.70;nan;102069.16;5004682;28;20057;-38
2023/06/05 06:56:09;;;;;;;4.55;1.73;;;;;;;18.76;nan;102058.06;5028808;28;20052;-38
2023/06/05 06:58:36;;;;;;;3.42;1.48;;;;;;;18.78;nan;102061.50;5043575;28;20017;-40
2023/06/05 07:01:02;;;;;;;5.00;1.80;;;;;;;18.83;nan;102072.66;5026881;28;20094;-38
2023/06/05 07:03:28;;;;;;;5.03;1.80;;;;;;;18.88;nan;102065.19;5030695;28;20036;-38
2023/06/05 07:05:53;;;;;;;5.05;1.92;;;;;;;18.92;nan;102059.63;5037858;28;20391;-39
2023/06/05 07:08:19;;;;;;;6.72;1.77;;;;;;;18.94;nan;102063.06;5035839;28;20488;-40
2023/06/05 07:10:44;;;;;;;5.03;1.70;;;;;;;18.96;nan;102061.16;5018298;28;20041;-40
2023/06/05 07:13:10;;;;;;;6.13;2.10;;;;;;;18.98;nan;102065.41;5023653;28;20106;-38
2023/06/05 07:15:35;;;;;;;3.78;1.70;;;;;;;19.04;nan;102064.09;5017758;28;20031;-38
2023/06/05 07:18:01;;;;;;;3.83;1.73;;;;;;;19.06;nan;102056.00;5025314;28;20442;-40
2023/06/05 07:20:27;;;;;;;5.50;1.80;;;;;;;19.09;nan;102056.63;5048981;28;20056;-39
2023/06/05 07:22:52;;;;;;;7.63;1.80;;;;;;;19.21;nan;102059.34;5021597;28;20041;-38
2023/06/05 07:25:20;;;;;;;12.05;2.00;;;;;;;19.16;nan;102051.69;5009081;28;20049;-38
2023/06/05 07:27:46;;;;;;;8.50;2.30;;;;;;;19.37;nan;102057.25;5017808;28;20041;-38
2023/06/05 07:30:13;;;;;;;4.85;1.50;;;;;;;19.44;nan;102055.81;5034218;28;20045;-40
2023/06/05 07:32:42;;;;;;;5.97;1.65;;;;;;;19.49;nan;102063.50;5014219;28;20029;-40
2023/06/05 07:35:08;;;;;;;3.85;1.70;;;;;;;19.55;nan;102057.69;5036658;28;20052;-38
2023/06/05 07:37:34;;;;;;;7.22;2.22;;;;;;;19.59;nan;102055.63;5039740;28;20037;-39
2023/06/05 07:40:00;;;;;;;6.38;2.00;;;;;;;19.62;nan;102063.41;5029304;28;20044;-38
2023/06/05 07:42:25;;;;;;;5.20;2.40;;;;;;;19.65;nan;102063.19;5018380;28;20052;-38
2023/06/05 07:44:51;;;;;;;5.85;1.92;;;;;;;19.68;nan;102068.28;5019752;28;20040;-38
2023/06/05 07:47:17;;;;;;;10.23;1.92;;;;;;;19.73;nan;102059.94;5027777;28;20450;-39
2023/06/05 07:49:42;;;;;;;4.18;1.63;;;;;;;19.76;nan;102059.69;5032455;28;20031;-38
2023/06/05 07:52:07;;;;;;;5.75;1.58;;;;;;;19.78;nan;102069.28;5052261;28;20495;-38
2023/06/05 07:54:35;;;;;;;3.67;1.73;;;;;;;19.84;nan;102062.63;5032086;28;20032;-39
2023/06/05 07:57:04;;;;;;;5.70;1.92;;;;;;;19.88;nan;102061.47;5020338;28;20029;-39
2023/06/05 07:59:32;;;;;;;7.40;2.00;;;;;;;19.93;nan;102056.63;5052068;28;20419;-38
2023/06/05 08:02:00;;;;;;;4.20;1.75;;;;;;;19.96;nan;102066.22;5020961;28;20507;-38
2023/06/05 08:04:27;;;;;;;4.22;1.58;;;;;;;19.99;nan;102057.97;5013089;28;20102;-38
2023/06/05 08:06:53;;;;;;;6.38;1.73;;;;;;;20.03;nan;102054.09;5035558;28;20029;-38
2023/06/05 08:09:18;;;;;;;5.40;2.83;;;;;;;20.09;nan;102055.44;5024688;28;20040;-39
2023/06/05 08:11:44;;;;;;;7.32;1.75;;;;;;;20.17;nan;102054.84;5012568;28;20026;-39
2023/06/05 08:14:10;;;;;;;4.78;1.85;;;;;;;20.26;nan;102056.78;5028983;28;20025;-39
2023/06/05 08:16:36;;;;;;;3.30;1.40;;;;;;;20.30;nan;102057.38;5026583;28;20037;-38
2023/06/05 08:19:01;;;;;;;5.90;1.58;;;;;;;20.32;nan;102055.44;5032225;28;20044;-38
2023/06/05 08:21:27;;;;;;;7.28;2.60;;;;;;;20.36;nan;102056.91;5007056;28;20046;-40
2023/06/05 08:23:53;;;;;;;6.32;1.60;;;;;;;20.42;nan;102048.41;5045708;28;20459;-38
2023/06/05 08:26:21;;;;;;;6.97;1.75;;;;;;;20.51;nan;102054.84;5028290;28;20025;-38
2023/06/05 08:28:47;;;;;;;4.68;1.73;;;;;;;20.57;nan;102054.38;5031233;28;20056;-40
2023/06/05 08:31:13;;;;;;;3.58;1.67;;;;;;;20.62;nan;102054.00;5049069;28;20106;-39
2023/06/05 08:33:46;;;;;;;5.57;1.63;;;;;;;20.68;nan;102049.00;5035411;28;20115;-38
2023/06/05 08:36:12;;;;;;;4.45;1.88;;;;;;;20.73;nan;102053.97;5017062;28;20037;-41
2023/06/05 08:38:37;;;;;;;4.30;1.70;;;;;;;20.74;nan;102044.13;5017880;28;20413;-39
2023/06/05 08:41:10;;;;;;;6.45;2.05;;;;;;;20.78;nan;102048.31;5037070;28;20032;-38
2023/06/05 08:43:41;;;;;;;7.20;3.20;;;;;;;20.83;nan;102044.28;5018007;28;20079;-40
2023/06/05 08:46:08;;;;;;;6.70;2.78;;;;;;;20.88;nan;102043.91;5066453;28;20043;-38
2023/06/05 08:48:40;;;;;;;8.48;3.05;;;;;;;20.90;nan;102041.94;5025350;28;20035;-39
2023/06/05 08:51:10;;;;;;;5.63;2.20;;;;;;;20.94;nan;102039.88;5048111;28;20033;-37
2023/06/05 08:53:38;;;;;;;5.78;1.58;;;;;;;20.96;nan;102033.41;5055872;28;20042;-38
2023/06/05 08:56:05;;;;;;;5.50;1.75;;;;;;;20.98;nan;102027.94;5023918;28;20120;-38
2023/06/05 08:58:30;;;;;;;4.15;2.47;;;;;;;21.01;nan;102036.56;5018025;28;20115;-37
2023/06/05 09:00:57;;;;;;;5.13;1.63;;;;;;;21.05;nan;102033.66;5052818;28;20148;-37
2023/06/05 09:03:22;;;;;;;3.60;1.35;;;;;;;21.08;nan;102033.41;5052163;28;20062;-38
2023/06/05 09:05:48;;;;;;;3.33;1.55;;;;;;;21.12;nan;102021.44;5035428;28;20032;-38
2023/06/05 09:08:18;;;;;;;6.85;1.33;;;;;;;21.16;nan;102022.91;5029984;28;20058;-37
2023/06/05 09:10:43;;;;;;;5.05;1.33;;;;;;;21.16;nan;102017.53;5065781;28;20518;-37
2023/06/05 09:13:09;;;;;;;3.90;1.50;;;;;;;21.20;nan;102019.00;5031604;28;20036;-38
2023/06/05 09:15:35;;;;;;;1.83;0.82;;;;;;;21.20;nan;102013.66;5008835;28;20090;-38
2023/06/05 09:18:09;;;;;;;4.88;1.05;;;;;;;21.26;nan;102013.13;5048458;28;20079;-38
2023/06/05 09:20:37;;;;;;;4.50;1.25;;;;;;;21.31;nan;102018.94;5029197;28;20475;-39
2023/06/05 09:23:05;;;;;;;3.13;1.35;;;;;;;21.37;nan;102022.09;5031138;28;20051;-39
2023/06/05 09:25:50;;;;;;;3.45;1.30;;;;;;;21.42;nan;102014.50;5030983;28;20029;-38
2023/06/05 09:28:16;;;;;;;6.30;2.17;;;;;;;21.44;nan;102020.59;5029483;28;20028;-38
2023/06/05 09:31:04;;;;;;;4.55;1.40;;;;;;;21.46;nan;102016.81;5025321;28;20368;-38
2023/06/05 09:33:34;;;;;;;4.40;1.40;;;;;;;21.47;nan;102018.53;5042465;28;20027;-38
2023/06/05 09:36:12;;;;;;;3.47;1.70;;;;;;;21.52;nan;102018.13;5040818;28;20040;-39
2023/06/05 09:38:39;;;;;;;5.70;1.70;;;;;;;21.54;nan;102018.84;5030244;28;20037;-38
2023/06/05 09:41:05;;;;;;;6.28;2.00;;;;;;;21.58;nan;102012.22;5051663;28;20029;-38
2023/06/05 09:43:30;;;;;;;3.88;1.30;;;;;;;21.67;nan;102020.50;5049041;28;20021;-38
2023/06/05 09:45:56;;;;;;;5.20;1.30;;;;;;;21.72;nan;102013.78;5029112;28;20157;-40
2023/06/05 09:48:22;;;;;;;4.72;1.20;;;;;;;21.65;nan;102004.56;5033293;28;20040;-39
2023/06/05 09:50:47;;;;;;;3.55;1.33;;;;;;;21.80;nan;102005.09;5032957;28;20041;-38
2023/06/05 09:53:16;;;;;;;3.55;1.55;;;;;;;21.86;nan;102007.22;5048193;28;20036;-39
2023/06/05 09:55:42;;;;;;;2.38;1.10;;;;;;;21.89;nan;101998.94;5030370;28;20043;-38
2023/06/05 09:58:13;;;;;;;3.55;1.15;;;;;;;21.97;nan;101998.25;5030315;28;20120;-39
2023/06/05 10:00:41;;;;;;;2.47;1.00;;;;;;;22.03;nan;101994.19;5030063;28;20071;-38
2023/06/05 10:03:14;;;;;;;4.43;1.30;;;;;;;22.08;nan;101998.16;5027059;28;20275;-38
2023/06/05 10:05:42;;;;;;;21.92;9.80;;;;;;;22.05;nan;101997.59;5024890;28;20037;-38
2023/06/05 10:08:08;;;;;;;10.20;5.35;;;;;;;22.12;nan;101993.41;5048606;28;20060;-38
2023/06/05 10:10:37;;;;;;;4.45;1.70;;;;;;;22.22;nan;101999.66;4998187;28;20029;-38
2023/06/05 10:13:02;;;;;;;3.08;1.83;;;;;;;22.29;nan;101993.75;5029794;28;20083;-38
2023/06/05 10:15:31;;;;;;;4.38;1.33;;;;;;;22.32;nan;101990.78;5029995;28;20028;-39
2023/06/05 10:17:57;;;;;;;3.80;1.80;;;;;;;22.33;nan;101989.81;5031822;28;20036;-38
2023/06/05 10:20:22;;;;;;;7.60;1.95;;;;;;;22.33;nan;101984.44;5044610;28;20074;-38
2023/06/05 10:22:50;;;;;;;5.00;1.10;;;;;;;22.39;nan;101984.75;5033115;28;20526;-38
2023/06/05 10:25:20;;;;;;;4.47;1.30;;;;;;;22.48;nan;101977.75;5041280;28;20393;-38
2023/06/05 10:28:31;;;;;;;3.80;1.50;;;;;;;22.58;nan;101983.13;5030516;28;20037;-38
2023/06/05 10:31:13;;;;;;;3.15;1.58;;;;;;;22.65;nan;101972.69;4970271;28;20929;-38
2023/06/05 10:34:21;;;;;;;3.72;1.35;;;;;;;22.71;nan;101982.03;4966926;28;20417;-38
2023/06/05 10:37:03;;;;;;;4.38;1.70;;;;;;;22.71;nan;101972.16;5021141;28;20128;-38
2023/06/05 10:39:31;;;;;;;2.55;1.13;;;;;;;22.73;nan;101969.31;5043856;28;20060;-38
2023/06/05 10:41:58;;;;;;;4.30;1.40;;;;;;;22.75;nan;101962.84;5025002;28;20045;-40
2023/06/05 10:44:39;;;;;;;2.03;1.00;;;;;;;22.82;nan;101969.34;5046877;28;20024;-38
2023/06/05 10:47:33;;;;;;;5.15;1.20;;;;;;;22.89;nan;101963.44;5029732;28;20086;-38
2023/06/05 10:50:19;;;;;;;5.60;1.38;;;;;;;22.95;nan;101962.84;5039885;28;20071;-38
2023/06/05 10:52:49;;;;;;;3.92;1.45;;;;;;;23.01;nan;101964.13;5023984;28;20538;-39
2023/06/05 10:55:16;;;;;;;16.90;8.73;;;;;;;23.02;nan;101952.41;5048532;28;20387;-39
2023/06/05 10:58:10;;;;;;;5.53;2.85;;;;;;;23.10;nan;101958.75;5045872;28;20121;-40
2023/06/05 11:01:14;;;;;;;8.15;2.03;;;;;;;23.20;nan;101953.41;5029916;28;20074;-38
2023/06/05 11:03:56;;;;;;;5.00;1.80;;;;;;;23.34;nan;101956.66;5024488;28;20029;-38
2023/06/05 11:06:23;;;;;;;5.45;1.38;;;;;;;23.40;nan;101958.78;5006206;28;20567;-41
2023/06/05 11:09:09;;;;;;;2.15;1.38;;;;;;;23.47;nan;101956.34;5009965;28;20076;-38
2023/06/05 11:11:54;;;;;;;3.63;1.60;;;;;;;23.51;nan;101955.09;5027560;28;20049;-39
2023/06/05 11:14:20;;;;;;;3.83;1.52;;;;;;;23.47;nan;101945.63;5029838;28;20057;-39
2023/06/05 11:16:46;;;;;;;2.22;1.25;;;;;;;23.53;nan;101947.69;4991093;28;20120;-38
2023/06/05 11:19:20;;;;;;;3.95;1.40;;;;;;;23.52;nan;101951.41;5061927;28;20124;-39
2023/06/05 11:22:09;;;;;;;4.30;2.03;;;;;;;23.64;nan;101947.56;5030072;28;20048;-39
2023/06/05 11:24:40;;;;;;;4.60;1.63;;;;;;;23.80;nan;101940.72;5029607;28;20154;-39
2023/06/05 11:27:26;;;;;;;2.85;1.30;;;;;;;23.85;nan;101943.78;5029036;28;20048;-39
2023/06/05 11:29:52;;;;;;;4.60;1.45;;;;;;;23.79;nan;101933.66;5044452;28;20106;-39
2023/06/05 11:32:18;;;;;;;2.75;1.13;;;;;;;23.85;nan;101938.41;5032066;28;20032;-39
2023/06/05 11:34:50;;;;;;;2.78;1.20;;;;;;;23.89;nan;101931.75;5046786;28;20051;-38
2023/06/05 11:37:18;;;;;;;5.82;1.50;;;;;;;23.98;nan;101922.00;5043333;28;20048;-39
2023/06/05 11:39:44;;;;;;;4.35;1.50;;;;;;;24.05;nan;101933.81;5025931;28;21097;-40
2023/06/05 11:42:09;;;;;;;4.28;1.20;;;;;;;24.12;nan;101934.94;5028578;28;20056;-38
2023/06/05 11:44:35;;;;;;;3.03;1.25;;;;;;;24.19;nan;101933.34;5031650;28;20071;-39
2023/06/05 11:47:01;;;;;;;6.47;1.90;;;;;;;24.28;nan;101926.19;5027418;28;20067;-39